Time;durP1;ratioP1;P1;durP2;ratioP2;P2;SDS_P1;SDS_P2;PMS_P1;PMS_P2;Temp;Humidity;BMP_temperature;BMP_pressure;BME280_temperature;BME280_humidity;BME280_pressure;Samples;Min_cycle;Max_cycle;Signal;HPM_P1;HPM_P2
2023/07/11 00:00:16;;;;;;;3.38;2.80;;;;;;;;;;5031144;28;20224;-77
2023/07/11 00:02:43;;;;;;;5.43;2.65;;;;;;;;;;5015208;28;20326;-76
2023/07/11 00:05:16;;;;;;;2.92;2.60;;;;;;;;;;5032729;28;20223;-78
2023/07/11 00:07:47;;;;;;;2.70;2.50;;;;;;;;;;5007981;28;20487;-77
2023/07/11 00:10:18;;;;;;;3.92;3.00;;;;;;;;;;5026452;28;20216;-77
2023/07/11 00:12:45;;;;;;;6.85;2.72;;;;;;;;;;5017424;28;20232;-76
2023/07/11 00:15:12;;;;;;;2.78;2.45;;;;;;;;;;5017312;28;20287;-77
2023/07/11 00:17:40;;;;;;;3.97;2.70;;;;;;;;;;5031687;28;20226;-78
2023/07/11 00:20:08;;;;;;;2.67;2.40;;;;;;;;;;4994565;28;20219;-77
2023/07/11 00:22:36;;;;;;;4.45;2.80;;;;;;;;;;5007756;28;20227;-77
2023/07/11 00:25:04;;;;;;;2.63;2.40;;;;;;;;;;5026019;28;20219;-76
2023/07/11 00:27:30;;;;;;;2.75;2.38;;;;;;;;;;5011388;28;20242;-77
2023/07/11 00:29:56;;;;;;;4.30;2.60;;;;;;;;;;5011959;28;20207;-77
2023/07/11 00:32:22;;;;;;;3.08;2.60;;;;;;;;;;5028532;28;20248;-77
2023/07/11 00:34:47;;;;;;;2.65;2.45;;;;;;;;;;5004825;28;20216;-76
2023/07/11 00:37:14;;;;;;;2.97;2.67;;;;;;;;;;5030394;28;20227;-78
2023/07/11 00:39:39;;;;;;;2.45;2.25;;;;;;;;;;5032853;28;20229;-77
2023/07/11 00:42:05;;;;;;;3.08;2.72;;;;;;;;;;5015152;28;20219;-77
2023/07/11 00:44:51;;;;;;;4.35;2.70;;;;;;;;;;5016394;28;20215;-77
2023/07/11 00:47:17;;;;;;;2.65;2.40;;;;;;;;;;5033460;28;20251;-77
2023/07/11 00:49:45;;;;;;;3.72;2.72;;;;;;;;;;5015936;28;20408;-76
2023/07/11 00:52:10;;;;;;;3.30;2.53;;;;;;;;;;5013544;28;20238;-77
2023/07/11 00:54:36;;;;;;;3.92;2.88;;;;;;;;;;5023553;28;20227;-77
2023/07/11 00:57:02;;;;;;;2.72;2.53;;;;;;;;;;5008769;28;20238;-77
2023/07/11 00:59:30;;;;;;;6.25;3.00;;;;;;;;;;5032045;28;20254;-78
2023/07/11 01:02:02;;;;;;;3.33;2.65;;;;;;;;;;5016712;28;20211;-77
2023/07/11 01:04:30;;;;;;;3.38;2.90;;;;;;;;;;5030655;28;20230;-77
2023/07/11 01:06:58;;;;;;;2.63;2.42;;;;;;;;;;5013558;28;20223;-77
2023/07/11 01:09:26;;;;;;;4.45;2.92;;;;;;;;;;5035658;28;20223;-77
2023/07/11 01:11:54;;;;;;;3.40;2.72;;;;;;;;;;5044802;28;20223;-77
2023/07/11 01:14:21;;;;;;;3.50;2.78;;;;;;;;;;5015224;28;21034;-76
2023/07/11 01:16:46;;;;;;;2.72;2.47;;;;;;;;;;5030913;28;20227;-77
2023/07/11 01:19:12;;;;;;;3.30;2.50;;;;;;;;;;5058588;28;20255;-74
2023/07/11 01:21:40;;;;;;;3.38;2.60;;;;;;;;;;5044361;28;20223;-75
2023/07/11 01:24:05;;;;;;;2.90;2.70;;;;;;;;;;5028303;28;20220;-76
2023/07/11 01:26:31;;;;;;;5.75;2.80;;;;;;;;;;5026438;28;20212;-75
2023/07/11 01:28:59;;;;;;;3.83;3.13;;;;;;;;;;5039180;28;20218;-74
2023/07/11 01:31:26;;;;;;;2.97;2.67;;;;;;;;;;5036922;28;20219;-75
2023/07/11 01:33:52;;;;;;;6.18;3.00;;;;;;;;;;5043647;28;20227;-75
2023/07/11 01:36:20;;;;;;;7.80;3.03;;;;;;;;;;5019532;28;20223;-76
2023/07/11 01:38:45;;;;;;;6.63;3.13;;;;;;;;;;5042425;28;20220;-77
2023/07/11 01:41:11;;;;;;;3.47;3.10;;;;;;;;;;5042041;28;20226;-77
2023/07/11 01:43:37;;;;;;;4.70;3.42;;;;;;;;;;5038825;28;20567;-77
2023/07/11 01:46:03;;;;;;;3.80;2.80;;;;;;;;;;5025786;28;20294;-76
2023/07/11 01:48:36;;;;;;;4.47;3.58;;;;;;;;;;5006480;28;20230;-76
2023/07/11 01:51:03;;;;;;;3.88;3.30;;;;;;;;;;5039289;28;20223;-76
2023/07/11 01:53:29;;;;;;;3.65;3.05;;;;;;;;;;5020859;28;20311;-77
2023/07/11 01:55:56;;;;;;;3.85;3.05;;;;;;;;;;5011819;28;20445;-77
2023/07/11 01:58:22;;;;;;;5.32;3.55;;;;;;;;;;5002217;28;20290;-74
2023/07/11 02:00:52;;;;;;;4.88;3.00;;;;;;;;;;5028822;28;20649;-77
2023/07/11 02:03:20;;;;;;;4.00;3.20;;;;;;;;;;5011268;28;20359;-74
2023/07/11 02:05:45;;;;;;;3.72;3.20;;;;;;;;;;5024945;28;20895;-78
2023/07/11 02:08:11;;;;;;;4.15;3.75;;;;;;;;;;5029420;28;20227;-78
2023/07/11 02:10:39;;;;;;;3.33;3.03;;;;;;;;;;5029398;28;20223;-77
2023/07/11 02:13:05;;;;;;;3.40;3.05;;;;;;;;;;5029403;28;20228;-78
2023/07/11 02:15:39;;;;;;;3.45;2.97;;;;;;;;;;5039862;28;20215;-75
2023/07/11 02:18:08;;;;;;;5.15;2.70;;;;;;;;;;5028018;28;20755;-77
2023/07/11 02:20:39;;;;;;;4.57;2.90;;;;;;;;;;5015241;28;20219;-76
2023/07/11 02:23:09;;;;;;;4.38;2.75;;;;;;;;;;5012201;28;20247;-76
2023/07/11 02:25:38;;;;;;;2.88;2.60;;;;;;;;;;5038215;28;20604;-77
2023/07/11 02:28:03;;;;;;;3.72;2.60;;;;;;;;;;5029784;28;20596;-76
2023/07/11 02:30:29;;;;;;;4.68;2.70;;;;;;;;;;4998228;28;20219;-75
2023/07/11 02:32:55;;;;;;;4.35;3.75;;;;;;;;;;5029729;28;20231;-77
2023/07/11 02:35:24;;;;;;;4.30;3.05;;;;;;;;;;5011584;28;20226;-77
2023/07/11 02:37:50;;;;;;;3.72;3.00;;;;;;;;;;5008635;28;20311;-75
2023/07/11 02:40:16;;;;;;;3.97;2.90;;;;;;;;;;5038011;28;20251;-76
2023/07/11 02:42:43;;;;;;;3.00;2.40;;;;;;;;;;5006647;28;20223;-77
2023/07/11 02:45:09;;;;;;;3.92;2.97;;;;;;;;;;5011051;28;20646;-77
2023/07/11 02:47:37;;;;;;;4.38;2.92;;;;;;;;;;5012618;28;20223;-75
2023/07/11 02:50:03;;;;;;;4.53;3.13;;;;;;;;;;5024245;28;20291;-77
2023/07/11 02:52:33;;;;;;;4.88;3.17;;;;;;;;;;5005865;28;20227;-77
2023/07/11 02:54:59;;;;;;;4.13;3.10;;;;;;;;;;5020044;28;20242;-76
2023/07/11 02:57:26;;;;;;;3.25;2.90;;;;;;;;;;5021005;28;20227;-76
2023/07/11 02:59:52;;;;;;;3.03;2.70;;;;;;;;;;5036102;28;20219;-77
2023/07/11 03:02:17;;;;;;;3.08;2.80;;;;;;;;;;5011041;28;20223;-77
2023/07/11 03:04:43;;;;;;;3.53;3.13;;;;;;;;;;5022692;28;20235;-76
2023/07/11 03:07:08;;;;;;;5.57;4.13;;;;;;;;;;5026297;28;20604;-78
2023/07/11 03:09:34;;;;;;;3.88;3.55;;;;;;;;;;5039052;28;20220;-77
2023/07/11 03:12:06;;;;;;;4.80;3.65;;;;;;;;;;5037046;28;20215;-77
2023/07/11 03:14:33;;;;;;;4.72;3.35;;;;;;;;;;4998843;28;20243;-76
2023/07/11 03:17:01;;;;;;;3.47;3.17;;;;;;;;;;4996670;28;20242;-77
2023/07/11 03:19:27;;;;;;;5.03;3.33;;;;;;;;;;4992557;28;20644;-77
2023/07/11 03:21:55;;;;;;;6.22;3.70;;;;;;;;;;4991842;28;20247;-78
2023/07/11 03:24:23;;;;;;;3.53;3.22;;;;;;;;;;5018386;28;20220;-76
2023/07/11 03:26:48;;;;;;;3.55;3.25;;;;;;;;;;5002540;28;20230;-75
2023/07/11 03:29:14;;;;;;;3.88;3.10;;;;;;;;;;4993511;28;20238;-76
2023/07/11 03:31:41;;;;;;;5.18;3.33;;;;;;;;;;5004887;28;20227;-76
2023/07/11 03:34:09;;;;;;;4.07;3.67;;;;;;;;;;5013193;28;20700;-77
2023/07/11 03:36:37;;;;;;;4.63;3.40;;;;;;;;;;5024535;28;20325;-76
2023/07/11 03:39:03;;;;;;;4.53;3.83;;;;;;;;;;5010832;28;20216;-76
2023/07/11 03:41:29;;;;;;;5.15;3.88;;;;;;;;;;4989230;28;20218;-76
2023/07/11 03:43:54;;;;;;;5.07;3.55;;;;;;;;;;5026819;28;20215;-76
2023/07/11 03:46:20;;;;;;;7.00;4.00;;;;;;;;;;5011860;28;20216;-77
2023/07/11 03:48:48;;;;;;;7.38;3.78;;;;;;;;;;5001303;28;20216;-76
2023/07/11 03:51:13;;;;;;;5.50;4.05;;;;;;;;;;5008359;28;20219;-78
2023/07/11 03:53:39;;;;;;;4.80;3.90;;;;;;;;;;5027721;28;20228;-77
2023/07/11 03:56:06;;;;;;;5.13;3.90;;;;;;;;;;5017723;28;20997;-78
2023/07/11 03:58:31;;;;;;;4.07;3.70;;;;;;;;;;5017821;28;20223;-78
2023/07/11 04:04:46;;;;;;;7.47;4.00;;;;;;;;;;5048405;28;20250;-78
2023/07/11 04:07:11;;;;;;;3.72;3.35;;;;;;;;;;5030141;28;20289;-78
2023/07/11 04:09:39;;;;;;;6.53;3.92;;;;;;;;;;5043468;28;20223;-77
2023/07/11 04:12:07;;;;;;;5.00;3.53;;;;;;;;;;5029951;28;20215;-78
2023/07/11 04:14:33;;;;;;;4.80;3.97;;;;;;;;;;5033947;28;20254;-76
2023/07/11 04:16:58;;;;;;;3.80;3.50;;;;;;;;;;5028390;28;20267;-78
2023/07/11 04:19:26;;;;;;;5.55;3.72;;;;;;;;;;5048819;28;20250;-78
2023/07/11 04:21:51;;;;;;;6.53;3.38;;;;;;;;;;5044760;28;20230;-76
2023/07/11 04:24:17;;;;;;;6.13;3.60;;;;;;;;;;5056634;28;20644;-76
2023/07/11 04:26:45;;;;;;;6.03;3.47;;;;;;;;;;5049192;28;20291;-76
2023/07/11 04:29:10;;;;;;;3.67;3.22;;;;;;;;;;5031853;28;20223;-76
2023/07/11 04:31:41;;;;;;;3.47;3.13;;;;;;;;;;5044932;28;20212;-77
2023/07/11 04:34:08;;;;;;;3.20;2.75;;;;;;;;;;5035525;28;20244;-78
2023/07/11 04:36:34;;;;;;;6.10;3.00;;;;;;;;;;5027521;28;20230;-78
2023/07/11 04:39:00;;;;;;;5.00;3.50;;;;;;;;;;4999503;28;20219;-77
2023/07/11 04:41:28;;;;;;;3.63;3.30;;;;;;;;;;5031436;28;20265;-76
2023/07/11 04:43:55;;;;;;;5.30;2.97;;;;;;;;;;4998244;28;20212;-79
2023/07/11 04:46:21;;;;;;;2.88;2.67;;;;;;;;;;5032317;28;20220;-78
2023/07/11 04:48:49;;;;;;;5.20;3.28;;;;;;;;;;5041470;28;20243;-77
2023/07/11 04:51:14;;;;;;;3.58;3.00;;;;;;;;;;5041399;28;20721;-78
2023/07/11 04:53:42;;;;;;;4.88;3.22;;;;;;;;;;5042832;28;20223;-78
2023/07/11 04:56:09;;;;;;;4.38;3.05;;;;;;;;;;5032989;28;20227;-76
2023/07/11 04:58:39;;;;;;;3.22;2.58;;;;;;;;;;5026244;28;20219;-77
2023/07/11 05:01:10;;;;;;;8.90;3.10;;;;;;;;;;5031335;28;20592;-77
2023/07/11 05:03:36;;;;;;;5.70;3.00;;;;;;;;;;5013790;28;20227;-78
2023/07/11 05:06:02;;;;;;;5.32;3.28;;;;;;;;;;5015669;28;20273;-77
2023/07/11 05:08:30;;;;;;;3.17;2.75;;;;;;;;;;4991218;28;20238;-79
2023/07/11 05:11:03;;;;;;;4.00;2.65;;;;;;;;;;5038016;28;20224;-78
2023/07/11 05:13:30;;;;;;;3.40;2.80;;;;;;;;;;5014517;28;20232;-77
2023/07/11 05:16:11;;;;;;;5.07;2.92;;;;;;;;;;5020123;28;20318;-78
2023/07/11 05:18:40;;;;;;;3.42;2.70;;;;;;;;;;5039207;28;20580;-79
2023/07/11 05:21:07;;;;;;;5.15;2.80;;;;;;;;;;5008216;28;20246;-76
2023/07/11 05:23:35;;;;;;;3.88;2.60;;;;;;;;;;5040065;28;20230;-77
2023/07/11 05:26:01;;;;;;;3.15;2.38;;;;;;;;;;4998613;28;20227;-79
2023/07/11 05:28:32;;;;;;;4.10;2.60;;;;;;;;;;5023225;28;20287;-77
2023/07/11 05:31:01;;;;;;;5.07;2.45;;;;;;;;;;5028317;28;20231;-78
2023/07/11 05:33:26;;;;;;;5.65;2.72;;;;;;;;;;5015012;28;20215;-79
2023/07/11 05:36:05;;;;;;;4.82;2.47;;;;;;;;;;5027229;28;20227;-78
2023/07/11 05:38:33;;;;;;;6.88;2.63;;;;;;;;;;5017036;28;20231;-77
2023/07/11 05:41:02;;;;;;;3.13;2.45;;;;;;;;;;5032241;28;20227;-78
2023/07/11 05:43:27;;;;;;;4.20;2.78;;;;;;;;;;5038721;28;20208;-77
2023/07/11 05:45:55;;;;;;;4.72;2.20;;;;;;;;;;5029625;28;20227;-78
2023/07/11 05:48:20;;;;;;;4.65;2.33;;;;;;;;;;5007299;28;20955;-77
2023/07/11 05:51:04;;;;;;;3.17;1.92;;;;;;;;;;5040974;28;20220;-77
2023/07/11 05:53:32;;;;;;;3.35;2.08;;;;;;;;;;5028812;28;20275;-78
2023/07/11 05:56:00;;;;;;;5.03;2.00;;;;;;;;;;5031326;28;20305;-77
2023/07/11 05:58:26;;;;;;;3.25;2.10;;;;;;;;;;5040807;28;20694;-77
2023/07/11 06:00:52;;;;;;;5.97;2.20;;;;;;;;;;5012388;28;20220;-79
2023/07/11 06:03:18;;;;;;;4.28;2.00;;;;;;;;;;4996790;28;20212;-77
2023/07/11 06:05:44;;;;;;;2.42;1.85;;;;;;;;;;5029862;28;20227;-76
2023/07/11 06:08:12;;;;;;;4.07;2.20;;;;;;;;;;5021821;28;20247;-76
2023/07/11 06:10:38;;;;;;;3.10;1.80;;;;;;;;;;5028023;28;20223;-77
2023/07/11 06:13:05;;;;;;;2.35;1.63;;;;;;;;;;4989358;28;20235;-77
2023/07/11 06:15:31;;;;;;;2.95;2.30;;;;;;;;;;5022361;28;20224;-78
2023/07/11 06:17:57;;;;;;;2.88;1.80;;;;;;;;;;5021899;28;20223;-77
2023/07/11 06:20:25;;;;;;;2.03;1.83;;;;;;;;;;5021469;28;20247;-77
2023/07/11 06:22:50;;;;;;;5.15;1.98;;;;;;;;;;5014546;28;20583;-78
2023/07/11 06:25:16;;;;;;;3.38;1.92;;;;;;;;;;5027715;28;20231;-78
2023/07/11 06:27:41;;;;;;;3.45;2.03;;;;;;;;;;5013980;28;20223;-77
2023/07/11 06:30:10;;;;;;;2.83;1.95;;;;;;;;;;5028247;28;20230;-79
2023/07/11 06:32:38;;;;;;;2.22;1.70;;;;;;;;;;5028128;28;20235;-77
2023/07/11 06:35:04;;;;;;;2.60;1.90;;;;;;;;;;5028526;28;20219;-79
2023/07/11 06:37:31;;;;;;;3.92;1.90;;;;;;;;;;5006369;28;20224;-78
2023/07/11 06:39:59;;;;;;;3.63;1.98;;;;;;;;;;5025543;28;20229;-78
2023/07/11 06:42:27;;;;;;;3.58;1.85;;;;;;;;;;5038131;28;20632;-79
2023/07/11 06:44:53;;;;;;;2.95;1.90;;;;;;;;;;5024879;28;20302;-78
2023/07/11 06:47:18;;;;;;;2.80;1.92;;;;;;;;;;5039415;28;20227;-78
2023/07/11 06:49:44;;;;;;;2.38;1.40;;;;;;;;;;5026816;28;20436;-77
2023/07/11 06:52:10;;;;;;;3.45;1.90;;;;;;;;;;5026109;28;20219;-75
2023/07/11 06:54:38;;;;;;;3.08;1.70;;;;;;;;;;5012394;28;20235;-76
2023/07/11 06:57:03;;;;;;;3.58;1.92;;;;;;;;;;5040534;28;20243;-78
2023/07/11 06:59:31;;;;;;;3.05;2.03;;;;;;;;;;5028785;28;20223;-78
2023/07/11 07:02:00;;;;;;;3.58;1.90;;;;;;;;;;5006718;28;20223;-77
2023/07/11 07:04:25;;;;;;;2.53;1.80;;;;;;;;;;4989491;28;20223;-76
2023/07/11 07:06:53;;;;;;;3.08;1.85;;;;;;;;;;5010952;28;20246;-78
2023/07/11 07:09:20;;;;;;;2.72;1.90;;;;;;;;;;5011812;28;20220;-77
2023/07/11 07:11:45;;;;;;;3.10;1.80;;;;;;;;;;5036609;28;20242;-77
2023/07/11 07:14:11;;;;;;;3.75;1.77;;;;;;;;;;5035105;28;20688;-79
2023/07/11 07:16:37;;;;;;;4.00;2.00;;;;;;;;;;5031391;28;20230;-77
2023/07/11 07:19:06;;;;;;;3.90;2.28;;;;;;;;;;5016731;28;20227;-77
2023/07/11 07:21:32;;;;;;;5.38;2.30;;;;;;;;;;5028533;28;20314;-77
2023/07/11 07:23:58;;;;;;;3.90;2.10;;;;;;;;;;5034166;28;20328;-78
2023/07/11 07:26:23;;;;;;;4.00;1.95;;;;;;;;;;5024069;28;20628;-77
2023/07/11 07:28:51;;;;;;;3.35;1.80;;;;;;;;;;5020240;28;20231;-79
2023/07/11 07:31:17;;;;;;;3.42;1.80;;;;;;;;;;5028445;28;20216;-78
2023/07/11 07:33:45;;;;;;;2.85;1.90;;;;;;;;;;5012649;28;20721;-79
2023/07/11 07:36:11;;;;;;;4.28;1.70;;;;;;;;;;4996208;28;20353;-78
2023/07/11 07:38:39;;;;;;;2.10;1.90;;;;;;;;;;5012242;28;20288;-79
2023/07/11 07:41:06;;;;;;;3.35;1.95;;;;;;;;;;5011542;28;20216;-76
2023/07/11 07:43:36;;;;;;;3.03;1.83;;;;;;;;;;5012936;28;20253;-77
2023/07/11 07:46:04;;;;;;;4.43;1.73;;;;;;;;;;5006038;28;20216;-79
2023/07/11 07:48:34;;;;;;;3.15;1.70;;;;;;;;;;5004414;28;20300;-79
2023/07/11 07:51:10;;;;;;;3.78;2.20;;;;;;;;;;4987817;28;20228;-78
2023/07/11 07:53:36;;;;;;;2.53;1.65;;;;;;;;;;5031366;28;20601;-79
2023/07/11 07:56:14;;;;;;;3.45;1.77;;;;;;;;;;4989082;28;20219;-79
2023/07/11 07:58:39;;;;;;;3.70;2.17;;;;;;;;;;5013092;28;20223;-78
2023/07/11 08:01:05;;;;;;;3.00;1.90;;;;;;;;;;5021916;28;20231;-78
2023/07/11 08:03:32;;;;;;;2.95;1.85;;;;;;;;;;5013829;28;20255;-78
2023/07/11 08:05:58;;;;;;;3.95;2.00;;;;;;;;;;5038739;28;20594;-80
2023/07/11 08:08:26;;;;;;;5.00;2.08;;;;;;;;;;5011639;28;20228;-78
2023/07/11 08:10:53;;;;;;;3.00;1.95;;;;;;;;;;5025012;28;20266;-77
2023/07/11 08:13:19;;;;;;;4.13;1.90;;;;;;;;;;4986417;28;20220;-77
2023/07/11 08:15:44;;;;;;;2.00;1.70;;;;;;;;;;5043219;28;20230;-79
2023/07/11 08:18:10;;;;;;;2.47;2.00;;;;;;;;;;5013529;28;20227;-80
2023/07/11 08:20:36;;;;;;;2.97;1.90;;;;;;;;;;5015718;28;20211;-77
2023/07/11 08:23:01;;;;;;;3.00;1.88;;;;;;;;;;4991680;28;20982;-78
2023/07/11 08:25:27;;;;;;;2.95;2.30;;;;;;;;;;5022018;28;20798;-77
2023/07/11 08:27:56;;;;;;;2.35;1.80;;;;;;;;;;5027396;28;20219;-77
2023/07/11 08:30:22;;;;;;;4.20;1.90;;;;;;;;;;5040496;28;20220;-77
2023/07/11 08:32:47;;;;;;;4.93;2.00;;;;;;;;;;5023780;28;20226;-77
2023/07/11 08:35:15;;;;;;;2.53;2.00;;;;;;;;;;5024321;28;21238;-77
2023/07/11 08:37:41;;;;;;;3.95;2.05;;;;;;;;;;5007327;28;20227;-77
2023/07/11 08:40:15;;;;;;;3.80;1.90;;;;;;;;;;5029552;28;20208;-77
2023/07/11 08:42:41;;;;;;;3.55;2.00;;;;;;;;;;4999654;28;20227;-77
2023/07/11 08:45:23;;;;;;;2.42;1.90;;;;;;;;;;5016231;28;20227;-78
2023/07/11 08:48:03;;;;;;;2.40;2.10;;;;;;;;;;5042586;28;20282;-78
2023/07/11 08:50:36;;;;;;;4.95;1.90;;;;;;;;;;5041673;28;20327;-77
2023/07/11 08:53:21;;;;;;;2.53;1.90;;;;;;;;;;5025661;28;20227;-77
2023/07/11 08:55:51;;;;;;;3.58;1.60;;;;;;;;;;5027422;28;20246;-78
2023/07/11 08:58:25;;;;;;;3.80;1.83;;;;;;;;;;5020601;28;20234;-77
2023/07/11 09:00:51;;;;;;;2.53;2.03;;;;;;;;;;5035503;28;20825;-75
2023/07/11 09:03:26;;;;;;;3.35;2.15;;;;;;;;;;5025675;28;20219;-78
2023/07/11 09:06:06;;;;;;;3.58;1.73;;;;;;;;;;5044149;28;20219;-78
2023/07/11 09:08:36;;;;;;;2.20;2.00;;;;;;;;;;5042777;28;20223;-76
2023/07/11 09:11:08;;;;;;;2.83;1.75;;;;;;;;;;5007783;28;20215;-78
2023/07/11 09:13:48;;;;;;;2.58;1.88;;;;;;;;;;5033925;28;20231;-80
2023/07/11 09:16:53;;;;;;;2.85;2.00;;;;;;;;;;5013063;28;20235;-80
2023/07/11 09:19:48;;;;;;;2.10;1.77;;;;;;;;;;5000127;28;20255;-79
2023/07/11 09:22:21;;;;;;;4.32;2.42;;;;;;;;;;4999113;28;20326;-79
2023/07/11 09:24:58;;;;;;;2.30;1.77;;;;;;;;;;5022857;28;20231;-77
2023/07/11 09:27:44;;;;;;;2.20;1.83;;;;;;;;;;5028881;28;20219;-80
2023/07/11 09:30:33;;;;;;;2.53;1.75;;;;;;;;;;5028703;28;20676;-78
2023/07/11 09:33:24;;;;;;;5.35;2.10;;;;;;;;;;5030177;28;20226;-78
2023/07/11 09:35:50;;;;;;;4.22;2.10;;;;;;;;;;5043684;28;20246;-79
2023/07/11 09:38:33;;;;;;;1.90;1.70;;;;;;;;;;5028628;28;20231;-77
2023/07/11 09:41:01;;;;;;;2.75;2.10;;;;;;;;;;5004691;28;20227;-78
2023/07/11 09:43:26;;;;;;;2.83;2.08;;;;;;;;;;5030718;28;20239;-80
2023/07/11 09:45:52;;;;;;;3.55;2.08;;;;;;;;;;5005610;28;20220;-78
2023/07/11 09:48:34;;;;;;;2.33;2.10;;;;;;;;;;5038847;28;20731;-78
2023/07/11 09:50:59;;;;;;;3.00;2.70;;;;;;;;;;5031945;28;20227;-78
2023/07/11 09:53:26;;;;;;;3.20;2.90;;;;;;;;;;5012502;28;20232;-79
2023/07/11 09:56:02;;;;;;;7.53;3.08;;;;;;;;;;5006798;28;20415;-78
2023/07/11 09:58:33;;;;;;;5.35;2.65;;;;;;;;;;5012215;28;20330;-78
2023/07/11 10:01:00;;;;;;;7.18;2.47;;;;;;;;;;5029157;28;20231;-78
2023/07/11 10:03:30;;;;;;;4.38;2.40;;;;;;;;;;5012141;28;20288;-77
2023/07/11 10:05:58;;;;;;;2.65;2.38;;;;;;;;;;5040140;28;20223;-79
2023/07/11 10:08:27;;;;;;;3.92;2.10;;;;;;;;;;5028083;28;20717;-78
2023/07/11 10:10:54;;;;;;;4.78;2.70;;;;;;;;;;5028662;28;21228;-76
2023/07/11 10:13:20;;;;;;;4.47;2.90;;;;;;;;;;5027959;28;20234;-77
2023/07/11 10:15:53;;;;;;;3.72;2.60;;;;;;;;;;5029484;28;20215;-78
2023/07/11 10:18:27;;;;;;;2.92;2.40;;;;;;;;;;4994499;28;20223;-77
2023/07/11 10:21:00;;;;;;;3.03;2.40;;;;;;;;;;5034417;28;20251;-76
2023/07/11 10:23:28;;;;;;;3.13;2.45;;;;;;;;;;5032880;28;20219;-77
2023/07/11 10:26:06;;;;;;;2.47;1.65;;;;;;;;;;5009789;28;20283;-76
2023/07/11 10:28:32;;;;;;;2.55;1.83;;;;;;;;;;5030984;28;20215;-77
2023/07/11 10:31:00;;;;;;;2.90;1.65;;;;;;;;;;5036247;28;20215;-76
2023/07/11 10:33:28;;;;;;;2.47;1.88;;;;;;;;;;5028153;28;20474;-76
2023/07/11 10:36:07;;;;;;;2.03;1.83;;;;;;;;;;5020892;28;20212;-77
2023/07/11 10:38:47;;;;;;;1.90;1.67;;;;;;;;;;5043071;28;20286;-77
2023/07/11 10:41:17;;;;;;;6.25;1.73;;;;;;;;;;5014745;28;20248;-77
2023/07/11 10:43:48;;;;;;;2.58;1.83;;;;;;;;;;5025157;28;20243;-77
2023/07/11 10:46:23;;;;;;;2.88;1.80;;;;;;;;;;4996037;28;20235;-77
2023/07/11 10:48:51;;;;;;;3.25;2.00;;;;;;;;;;5016574;28;20650;-78
2023/07/11 10:51:21;;;;;;;2.33;1.92;;;;;;;;;;5027365;28;20254;-77
2023/07/11 10:53:50;;;;;;;2.53;1.80;;;;;;;;;;5026728;28;20325;-78
2023/07/11 10:56:21;;;;;;;2.60;1.95;;;;;;;;;;5027604;28;20246;-77
2023/07/11 10:58:46;;;;;;;2.90;1.88;;;;;;;;;;5030823;28;20218;-78
2023/07/11 11:01:18;;;;;;;2.72;1.80;;;;;;;;;;5027357;28;20220;-78
2023/07/11 11:03:47;;;;;;;2.03;1.85;;;;;;;;;;5033580;28;20227;-79
2023/07/11 11:06:31;;;;;;;2.95;2.10;;;;;;;;;;4999447;28;20347;-80
2023/07/11 11:09:12;;;;;;;4.55;2.38;;;;;;;;;;5027723;28;20221;-78
2023/07/11 11:11:59;;;;;;;4.50;2.30;;;;;;;;;;5028447;28;20228;-77
2023/07/11 11:15:16;;;;;;;3.00;1.80;;;;;;;;;;5019711;28;20282;-79
2023/07/11 11:18:23;;;;;;;3.40;2.22;;;;;;;;;;5017509;28;20696;-79
2023/07/11 11:21:00;;;;;;;5.13;2.30;;;;;;;;;;5006456;28;20223;-79
2023/07/11 11:23:43;;;;;;;2.55;2.35;;;;;;;;;;5026489;28;20934;-79
2023/07/11 11:26:20;;;;;;;6.07;2.35;;;;;;;;;;5006445;28;20216;-78
2023/07/11 11:28:55;;;;;;;3.45;2.22;;;;;;;;;;5029338;28;20561;-79
2023/07/11 11:31:23;;;;;;;3.80;2.28;;;;;;;;;;5011347;28;20244;-80
2023/07/11 11:33:52;;;;;;;2.90;2.53;;;;;;;;;;5011251;28;20220;-79
2023/07/11 11:36:20;;;;;;;3.03;2.60;;;;;;;;;;5038745;28;20238;-79
2023/07/11 11:38:50;;;;;;;3.13;2.92;;;;;;;;;;5028773;28;20228;-79
2023/07/11 11:41:17;;;;;;;2.97;2.63;;;;;;;;;;5040821;28;20269;-78
2023/07/11 11:43:47;;;;;;;4.05;2.42;;;;;;;;;;5022495;28;20211;-80
2023/07/11 11:46:17;;;;;;;4.75;2.63;;;;;;;;;;5013069;28;20223;-77
2023/07/11 11:48:43;;;;;;;2.90;2.58;;;;;;;;;;5023130;28;20303;-78
2023/07/11 11:51:23;;;;;;;3.38;2.80;;;;;;;;;;5021612;28;20291;-77
2023/07/11 11:54:06;;;;;;;3.08;2.60;;;;;;;;;;5028096;28;20226;-78
2023/07/11 11:56:31;;;;;;;3.05;2.50;;;;;;;;;;5039929;28;20704;-77
2023/07/11 11:58:59;;;;;;;4.75;2.78;;;;;;;;;;5027181;28;20290;-78
2023/07/11 12:01:53;;;;;;;2.97;2.75;;;;;;;;;;5039389;28;20366;-75
2023/07/11 12:04:27;;;;;;;5.57;2.90;;;;;;;;;;5029937;28;21020;-77
2023/07/11 12:07:04;;;;;;;3.45;3.15;;;;;;;;;;5032115;28;20310;-78
2023/07/11 12:09:33;;;;;;;2.60;2.40;;;;;;;;;;5024453;28;20262;-78
2023/07/11 12:12:04;;;;;;;4.13;2.90;;;;;;;;;;5037970;28;20714;-79
2023/07/11 12:14:53;;;;;;;2.80;2.58;;;;;;;;;;5024504;28;20239;-79
2023/07/11 12:17:33;;;;;;;3.17;2.88;;;;;;;;;;5027117;28;20239;-78
2023/07/11 12:20:02;;;;;;;3.33;2.95;;;;;;;;;;5034736;28;20748;-79
2023/07/11 12:22:36;;;;;;;2.90;2.63;;;;;;;;;;5031528;28;20227;-80
2023/07/11 12:25:15;;;;;;;3.67;3.10;;;;;;;;;;5014471;28;20342;-77
2023/07/11 12:27:47;;;;;;;6.05;3.40;;;;;;;;;;5018658;28;20232;-78
2023/07/11 12:30:13;;;;;;;3.40;3.10;;;;;;;;;;5040108;28;20231;-78
2023/07/11 12:32:51;;;;;;;4.20;3.08;;;;;;;;;;5023574;28;20226;-79
2023/07/11 12:35:23;;;;;;;5.63;3.63;;;;;;;;;;5024889;28;20326;-79
2023/07/11 12:38:00;;;;;;;3.83;3.50;;;;;;;;;;5008046;28;20258;-78
2023/07/11 12:40:48;;;;;;;3.47;3.03;;;;;;;;;;5021362;28;20298;-78
2023/07/11 12:43:34;;;;;;;4.45;3.80;;;;;;;;;;5038658;28;20586;-78
2023/07/11 12:46:01;;;;;;;3.80;3.30;;;;;;;;;;5016380;28;20218;-78
2023/07/11 12:48:31;;;;;;;4.05;3.13;;;;;;;;;;5013879;28;20223;-79
2023/07/11 12:51:06;;;;;;;4.78;3.15;;;;;;;;;;5010862;28;20659;-77
2023/07/11 12:53:37;;;;;;;3.60;3.30;;;;;;;;;;5011931;28;20235;-76
2023/07/11 12:56:03;;;;;;;3.38;2.88;;;;;;;;;;5005475;28;20227;-78
2023/07/11 12:58:30;;;;;;;3.40;3.10;;;;;;;;;;5013083;28;20227;-77
2023/07/11 13:00:59;;;;;;;3.55;3.25;;;;;;;;;;5032958;28;20320;-77
2023/07/11 13:03:34;;;;;;;4.10;3.63;;;;;;;;;;5031615;28;20302;-79
2023/07/11 13:06:29;;;;;;;3.90;3.47;;;;;;;;;;5028476;28;20231;-77
2023/07/11 13:08:57;;;;;;;4.72;3.42;;;;;;;;;;5013253;28;20711;-78
2023/07/11 13:11:26;;;;;;;6.13;3.35;;;;;;;;;;5009053;28;20227;-79
2023/07/11 13:13:52;;;;;;;3.58;3.28;;;;;;;;;;5025620;28;20232;-79
2023/07/11 13:16:20;;;;;;;3.63;3.30;;;;;;;;;;4995262;28;20231;-78
2023/07/11 13:18:47;;;;;;;3.75;3.28;;;;;;;;;;4990539;28;20302;-78
2023/07/11 13:21:15;;;;;;;3.97;3.58;;;;;;;;;;5009987;28;20712;-77
2023/07/11 13:23:45;;;;;;;3.83;3.30;;;;;;;;;;5015454;28;20672;-78
2023/07/11 13:26:39;;;;;;;3.78;3.47;;;;;;;;;;5046995;28;20238;-79
2023/07/11 13:29:10;;;;;;;5.25;3.30;;;;;;;;;;5015767;28;20238;-77
2023/07/11 13:31:43;;;;;;;4.00;3.60;;;;;;;;;;5015664;28;20617;-77
2023/07/11 13:34:12;;;;;;;4.65;3.22;;;;;;;;;;5030849;28;20294;-78
2023/07/11 13:36:45;;;;;;;4.75;3.63;;;;;;;;;;5041292;28;20212;-78
2023/07/11 13:39:20;;;;;;;3.83;3.55;;;;;;;;;;5013610;28;20751;-78
2023/07/11 13:41:47;;;;;;;6.30;3.50;;;;;;;;;;5024054;28;20320;-78
2023/07/11 13:44:27;;;;;;;5.07;3.63;;;;;;;;;;5013479;28;20732;-78
2023/07/11 13:46:55;;;;;;;3.80;3.50;;;;;;;;;;5024621;28;20243;-78
2023/07/11 13:49:45;;;;;;;6.05;3.65;;;;;;;;;;5014082;28;20219;-78
2023/07/11 13:52:39;;;;;;;4.28;3.88;;;;;;;;;;5011922;28;20243;-78
2023/07/11 13:55:24;;;;;;;4.45;3.90;;;;;;;;;;5037666;28;20224;-78
2023/07/11 13:57:52;;;;;;;4.47;3.50;;;;;;;;;;5038926;28;20616;-77
2023/07/11 14:00:19;;;;;;;5.72;3.70;;;;;;;;;;5011721;28;20224;-77
2023/07/11 14:02:45;;;;;;;4.38;3.70;;;;;;;;;;4997988;28;20275;-78
2023/07/11 14:05:14;;;;;;;4.20;3.80;;;;;;;;;;5011579;28;20231;-78
2023/07/11 14:07:42;;;;;;;3.70;3.28;;;;;;;;;;5004381;28;20611;-78
2023/07/11 14:10:09;;;;;;;3.80;3.42;;;;;;;;;;5032900;28;20224;-80
2023/07/11 14:12:36;;;;;;;4.07;3.65;;;;;;;;;;5016577;28;20211;-78
2023/07/11 14:15:12;;;;;;;6.72;3.75;;;;;;;;;;5026519;28;20322;-76
2023/07/11 14:17:40;;;;;;;4.10;3.70;;;;;;;;;;5017067;28;20230;-80
2023/07/11 14:20:11;;;;;;;3.72;3.42;;;;;;;;;;5029505;28;20216;-77
2023/07/11 14:22:40;;;;;;;4.45;4.00;;;;;;;;;;5022805;28;20917;-76
2023/07/11 14:25:13;;;;;;;4.10;3.70;;;;;;;;;;4996831;28;20227;-78
2023/07/11 14:27:39;;;;;;;4.63;3.45;;;;;;;;;;5044219;28;20586;-77
2023/07/11 14:30:05;;;;;;;4.93;3.90;;;;;;;;;;5013740;28;20262;-78
2023/07/11 14:32:30;;;;;;;4.25;3.78;;;;;;;;;;5016045;28;20681;-80
2023/07/11 14:34:58;;;;;;;4.68;3.78;;;;;;;;;;5023887;28;20226;-79
2023/07/11 14:37:24;;;;;;;3.92;3.53;;;;;;;;;;5041572;28;20227;-80
2023/07/11 14:39:54;;;;;;;6.32;3.97;;;;;;;;;;5016482;28;20211;-80
2023/07/11 14:42:26;;;;;;;4.13;3.75;;;;;;;;;;5029252;28;20234;-80
2023/07/11 14:44:53;;;;;;;4.63;3.92;;;;;;;;;;5015377;28;20211;-78
2023/07/11 14:47:18;;;;;;;3.90;3.60;;;;;;;;;;5007919;28;20259;-80
2023/07/11 14:49:46;;;;;;;3.92;3.63;;;;;;;;;;5030286;28;20297;-79
2023/07/11 14:52:32;;;;;;;4.30;3.90;;;;;;;;;;5038313;28;20216;-79
2023/07/11 14:54:58;;;;;;;5.30;3.90;;;;;;;;;;5004299;28;20251;-78
2023/07/11 14:57:26;;;;;;;6.72;3.95;;;;;;;;;;5027048;28;20228;-80
2023/07/11 14:59:52;;;;;;;3.75;3.45;;;;;;;;;;5043945;28;20680;-79
2023/07/11 15:02:24;;;;;;;4.20;3.85;;;;;;;;;;5012152;28;20246;-78